Madison, WI

1:58 PM CST on February 26, 2017 (GMT -0600)
Atmospheric, Oceanic and Space Sciences Building | | Change Station

Elev 896 ft 43.07 °N, 89.41 °W | Updated 3 minutes ago

Clear
Clear
38.6 °F
Feels Like 29 °F
N
17.6
Wind Variable Wind from West
Gusts 26.0 mph

Today
High -- | Low -- °F
--% Chance of Precip.
Yesterday
High -- | Low -- °F
Precip. -- in
Pressure 29.88 in
Visibility 10.0 miles
Clouds Few 3100 ft
Few 25000 ft
Windchill 29 °F
Dew Point 25 °F
Humidity 57%
Rainfall 0.04 in
Snow Depth Not available.
6:38 AM 5:43 PM
New Moon, 0% visible
METAR KMSN 261953Z 25009G16KT 10SM FEW031 FEW250 04/M04 A2985 RMK AO2 SLP118 T00391039
Pressure 29.88 in
Visibility 10.0 miles
Clouds Few 3100 ft
Few 25000 ft
Windchill 29 °F
Dew Point 25 °F
Humidity 57%
Rainfall 0.04 in
Snow Depth Not available.
6:38 AM 5:43 PM
New Moon, 0% visible
METAR KMSN 261953Z 25009G16KT 10SM FEW031 FEW250 04/M04 A2985 RMK AO2 SLP118 T00391039

Get Your Daily Forecast Email!

Thanks for signing up!

Be on the lookout for a verification email in your inbox.

You'll start receiving the daily forecast at 8 AM.

×

10-Day Weather Forecast

Almanac

Astronomy

Feb. 26, 2017 Rise Set
Actual Time
Civil Twilight
Nautical Twilight
Astronomical Twilight
Moon
Length of Visible Light
Length of Day
Tomorrow will be .
, % of the Moon is Illuminated

Today's Extremes

State Highs State Lows

Community

WunderPhotos

Upload Photos

1,962,540 photos uploaded!

WunderBlog® & News

Nearby

Air Quality

  Air Quality AQ Index Pollutant
Not available.

Snow Depth

Station Depth Elevation

Earthquake Activity

City Distance Mag. Time & Date
Minimum magnitude displayed is 2.5.

Coastal Water Temperatures

Place Temperature

Stations

Nearby Weather Stations

Station Location Temp. Windchill Dew Point Humidity Wind Precip. Elev Updated Type
                   

Watches & Warnings

There are currently no watches in effect.